Time;durP1;ratioP1;P1;durP2;ratioP2;P2;SDS_P1;SDS_P2;PMS_P1;PMS_P2;Temp;Humidity;BMP_temperature;BMP_pressure;BME280_temperature;BME280_humidity;BME280_pressure;Samples;Min_cycle;Max_cycle;Signal;HPM_P1;HPM_P2
2022/09/25 00:01:58;;;;;;;21.05;10.68;;;20.70;66.40;;;;;;5058125;28;20476;-73
2022/09/25 00:04:24;;;;;;;22.80;10.60;;;20.70;65.70;;;;;;5046301;28;20025;-73
2022/09/25 00:06:50;;;;;;;19.20;10.45;;;20.70;65.50;;;;;;5063503;22;20025;-73
2022/09/25 00:09:19;;;;;;;17.05;10.20;;;20.70;65.60;;;;;;5041261;28;20547;-73
2022/09/25 00:11:45;;;;;;;15.95;10.18;;;20.70;65.60;;;;;;5048289;28;20024;-73
2022/09/25 00:14:11;;;;;;;15.60;10.15;;;20.70;66.30;;;;;;5064189;28;20032;-73
2022/09/25 00:16:40;;;;;;;17.50;10.30;;;20.70;65.80;;;;;;5048543;28;20029;-74
2022/09/25 00:21:51;;;;;;;17.67;10.20;;;20.70;65.90;;;;;;5047987;28;20017;-73
2022/09/25 00:24:18;;;;;;;17.23;9.82;;;20.70;66.00;;;;;;5048425;28;20469;-72
2022/09/25 00:26:43;;;;;;;18.65;10.40;;;20.70;66.50;;;;;;5048404;28;20477;-74
2022/09/25 00:29:15;;;;;;;17.27;9.73;;;20.70;65.90;;;;;;5014275;28;20033;-73
2022/09/25 00:31:41;;;;;;;15.65;10.02;;;20.70;66.10;;;;;;5048008;28;20411;-74
2022/09/25 00:34:07;;;;;;;17.65;11.18;;;20.70;65.60;;;;;;5048328;28;20037;-76
2022/09/25 00:36:33;;;;;;;23.00;11.65;;;20.70;65.60;;;;;;5043727;28;20044;-72
2022/09/25 00:38:59;;;;;;;41.03;14.70;;;20.70;65.60;;;;;;5042354;28;20034;-72
2022/09/25 00:41:28;;;;;;;34.42;11.95;;;20.70;66.00;;;;;;5039415;28;20049;-72
2022/09/25 00:43:56;;;;;;;20.92;11.90;;;20.70;65.70;;;;;;5046812;28;20021;-73
2022/09/25 00:46:30;;;;;;;17.25;10.88;;;20.70;65.70;;;;;;5047826;28;20065;-73
2022/09/25 00:48:59;;;;;;;22.92;12.00;;;20.70;65.40;;;;;;5048046;28;20617;-73
2022/09/25 00:51:32;;;;;;;16.33;11.13;;;20.70;65.30;;;;;;5021976;28;20021;-73
2022/09/25 00:54:02;;;;;;;16.88;10.65;;;20.70;65.30;;;;;;5047774;28;20498;-72
2022/09/25 00:56:29;;;;;;;;;;;20.70;65.40;;;;;;5047565;28;20032;-72
2022/09/25 00:58:55;;;;;;;18.48;10.55;;;20.70;65.40;;;;;;5033332;28;20314;-73
2022/09/25 01:01:22;;;;;;;18.70;10.80;;;20.70;65.40;;;;;;5046916;28;20017;-72
2022/09/25 01:03:47;;;;;;;20.67;11.13;;;20.70;65.40;;;;;;5047397;28;20465;-73
2022/09/25 01:06:15;;;;;;;21.38;11.45;;;20.70;65.50;;;;;;5045236;28;20030;-73
2022/09/25 01:08:44;;;;;;;18.60;11.15;;;20.70;65.40;;;;;;5032988;28;20033;-73
2022/09/25 01:11:10;;;;;;;23.55;11.23;;;20.70;65.50;;;;;;5034128;28;20048;-72
2022/09/25 01:13:40;;;;;;;17.83;10.50;;;20.70;65.50;;;;;;5032517;28;20034;-72
2022/09/25 01:16:18;;;;;;;20.05;11.07;;;20.70;65.40;;;;;;5033881;28;20061;-73
2022/09/25 01:18:44;;;;;;;19.98;11.02;;;20.70;65.50;;;;;;5015506;28;20358;-73
2022/09/25 01:21:31;;;;;;;19.30;10.85;;;20.70;65.50;;;;;;5032248;28;20032;-72
2022/09/25 01:24:04;;;;;;;19.67;11.88;;;20.70;65.40;;;;;;5026404;28;20026;-72
2022/09/25 01:26:52;;;;;;;17.52;10.40;;;20.70;65.60;;;;;;5008680;28;20477;-73
2022/09/25 01:29:21;;;;;;;18.92;11.15;;;20.70;65.50;;;;;;5033882;28;20108;-72
2022/09/25 01:32:09;;;;;;;16.10;10.30;;;20.70;65.40;;;;;;5032132;28;20029;-72
2022/09/25 01:34:50;;;;;;;20.08;10.98;;;20.70;65.50;;;;;;5025249;28;20025;-72
2022/09/25 01:37:30;;;;;;;15.93;10.05;;;20.70;65.40;;;;;;5032635;28;20350;-72
2022/09/25 01:40:07;;;;;;;19.42;11.05;;;20.70;65.50;;;;;;5032886;28;20036;-72
2022/09/25 01:42:48;;;;;;;16.98;9.95;;;20.70;65.50;;;;;;5021757;28;20025;-72
2022/09/25 01:45:35;;;;;;;19.05;10.90;;;20.70;65.40;;;;;;5032741;28;20385;-72
2022/09/25 01:48:04;;;;;;;16.15;9.68;;;20.70;65.40;;;;;;5031825;28;20155;-72
2022/09/25 01:50:58;;;;;;;19.25;10.75;;;20.70;65.30;;;;;;5032820;28;20481;-72
2022/09/25 01:53:31;;;;;;;17.80;10.32;;;20.70;65.30;;;;;;5020069;28;20042;-72
2022/09/25 01:56:06;;;;;;;15.73;10.00;;;20.70;65.30;;;;;;5012339;28;20404;-72
2022/09/25 01:58:51;;;;;;;18.80;10.35;;;20.70;65.90;;;;;;5030299;28;20028;-72
2022/09/25 02:01:27;;;;;;;18.55;9.50;;;20.70;66.30;;;;;;5028612;28;20033;-72
2022/09/25 02:03:59;;;;;;;19.67;10.70;;;20.70;65.70;;;;;;5032590;28;20548;-72
2022/09/25 02:06:25;;;;;;;18.02;9.95;;;20.70;65.70;;;;;;5017168;28;20088;-72
2022/09/25 02:09:00;;;;;;;15.85;9.70;;;20.70;66.10;;;;;;5010099;28;20080;-72
2022/09/25 02:11:49;;;;;;;17.65;10.02;;;20.70;66.10;;;;;;5022236;28;20022;-72
2022/09/25 02:14:21;;;;;;;17.35;10.35;;;20.70;65.90;;;;;;5030329;28;20041;-72
2022/09/25 02:16:51;;;;;;;14.80;9.73;;;20.70;66.10;;;;;;5013965;28;20404;-72
2022/09/25 02:22:10;;;;;;;16.35;10.00;;;20.70;66.00;;;;;;5031832;28;20580;-72
2022/09/25 02:25:11;;;;;;;17.23;9.50;;;20.70;66.00;;;;;;5028109;28;20093;-73
2022/09/25 02:27:37;;;;;;;16.83;9.85;;;20.70;65.90;;;;;;5024615;28;20091;-72
2022/09/25 02:30:03;;;;;;;17.80;9.73;;;20.70;65.90;;;;;;5029647;28;20034;-72
2022/09/25 02:32:31;;;;;;;17.77;10.02;;;20.70;65.90;;;;;;5021343;28;20500;-72
2022/09/25 02:34:58;;;;;;;16.33;9.95;;;20.70;65.90;;;;;;5027872;28;20482;-73
2022/09/25 02:37:25;;;;;;;17.02;9.82;;;20.70;65.90;;;;;;5023707;28;20024;-72
2022/09/25 02:39:57;;;;;;;16.88;10.00;;;20.70;65.90;;;;;;5031655;28;20543;-72
2022/09/25 02:42:39;;;;;;;17.42;9.23;;;20.70;66.00;;;;;;5006396;28;20030;-72
2022/09/25 02:45:33;;;;;;;16.30;9.82;;;20.70;66.00;;;;;;5030787;28;20055;-72
2022/09/25 02:48:22;;;;;;;18.35;9.15;;;20.70;66.30;;;;;;5023252;28;20032;-72
2022/09/25 02:51:02;;;;;;;16.58;9.18;;;20.70;66.00;;;;;;5018238;28;20022;-72
2022/09/25 02:53:40;;;;;;;15.13;9.50;;;20.70;66.10;;;;;;5024216;28;20096;-72
2022/09/25 02:56:27;;;;;;;15.73;9.80;;;20.70;66.40;;;;;;5013805;28;20401;-72
2022/09/25 02:58:57;;;;;;;15.32;9.25;;;20.70;66.40;;;;;;5031552;28;20021;-72
2022/09/25 03:01:27;;;;;;;17.50;9.85;;;20.70;66.60;;;;;;5023378;28;20021;-73
2022/09/25 03:03:56;;;;;;;15.45;9.57;;;20.70;66.60;;;;;;5029221;28;20064;-72
2022/09/25 03:06:23;;;;;;;16.50;9.07;;;20.70;66.40;;;;;;5032068;28;20060;-72
2022/09/25 03:08:55;;;;;;;14.25;8.73;;;20.70;66.20;;;;;;5012875;28;20424;-72
2022/09/25 03:11:25;;;;;;;13.35;8.85;;;20.70;66.50;;;;;;5031057;28;20030;-72
2022/09/25 03:13:57;;;;;;;19.10;8.90;;;20.70;66.60;;;;;;5012725;28;20413;-73
2022/09/25 03:16:38;;;;;;;16.20;8.80;;;20.70;66.50;;;;;;5013164;28;20030;-73
2022/09/25 03:19:06;;;;;;;15.73;9.30;;;20.70;66.60;;;;;;5014530;28;20033;-72
2022/09/25 03:21:35;;;;;;;16.50;9.50;;;20.70;66.60;;;;;;5013437;28;20035;-73
2022/09/25 03:24:00;;;;;;;15.80;9.35;;;20.70;66.20;;;;;;5013638;28;20090;-72
2022/09/25 03:26:27;;;;;;;17.83;9.20;;;20.70;66.70;;;;;;5031860;28;20326;-72
2022/09/25 03:28:53;;;;;;;17.10;8.88;;;20.70;66.60;;;;;;5030051;28;20045;-72
2022/09/25 03:31:19;;;;;;;15.93;8.35;;;20.70;66.80;;;;;;5031237;28;20036;-73
2022/09/25 03:33:46;;;;;;;17.92;8.95;;;20.70;66.50;;;;;;5030375;28;20044;-72
2022/09/25 03:36:17;;;;;;;21.55;9.57;;;20.70;66.60;;;;;;5013964;28;20037;-73
2022/09/25 03:38:47;;;;;;;17.33;9.00;;;20.70;66.50;;;;;;5031556;28;20057;-72
2022/09/25 03:41:15;;;;;;;14.98;8.35;;;20.70;66.50;;;;;;5030638;28;20072;-73
2022/09/25 03:43:42;;;;;;;18.83;8.10;;;20.80;66.40;;;;;;5026290;28;20025;-73
2022/09/25 03:46:11;;;;;;;17.00;8.90;;;20.80;66.90;;;;;;5030639;28;20045;-72
2022/09/25 03:48:38;;;;;;;14.93;8.52;;;20.80;66.50;;;;;;5027947;28;20029;-72
2022/09/25 03:51:05;;;;;;;13.52;8.00;;;20.80;66.40;;;;;;5031288;28;20215;-73
2022/09/25 03:53:32;;;;;;;14.20;8.57;;;20.80;66.40;;;;;;5027391;28;20262;-73
2022/09/25 03:56:06;;;;;;;14.48;8.90;;;20.80;66.10;;;;;;5029557;28;20029;-72
2022/09/25 03:58:33;;;;;;;13.68;8.50;;;20.80;66.50;;;;;;5030173;28;20052;-73
2022/09/25 04:01:00;;;;;;;14.05;7.93;;;20.80;66.40;;;;;;5030355;28;20029;-73
2022/09/25 04:03:31;;;;;;;16.95;8.50;;;20.70;66.40;;;;;;5028774;28;20044;-73
2022/09/25 04:05:58;;;;;;;13.65;8.30;;;20.70;66.60;;;;;;5030327;28;20099;-72
2022/09/25 04:08:26;;;;;;;14.52;8.15;;;20.80;66.40;;;;;;5028067;28;20037;-72
2022/09/25 04:10:55;;;;;;;13.93;8.07;;;20.80;66.60;;;;;;5031093;28;20033;-73
2022/09/25 04:13:24;;;;;;;15.43;8.43;;;20.70;66.80;;;;;;5029015;28;20017;-72
2022/09/25 04:15:50;;;;;;;13.85;8.38;;;20.70;66.40;;;;;;5029631;28;20052;-72
2022/09/25 04:18:16;;;;;;;15.50;8.30;;;20.70;66.60;;;;;;5030024;28;20060;-72
2022/09/25 04:20:42;;;;;;;13.63;8.25;;;20.70;66.40;;;;;;5029914;28;20021;-72
2022/09/25 04:23:08;;;;;;;14.25;8.55;;;20.80;66.80;;;;;;5011899;28;20095;-72
2022/09/25 04:25:34;;;;;;;13.93;8.00;;;20.70;66.50;;;;;;5030688;28;20500;-72
2022/09/25 04:28:00;;;;;;;14.13;7.97;;;20.80;66.80;;;;;;5028412;28;20026;-72
2022/09/25 04:30:27;;;;;;;16.58;8.02;;;20.70;66.80;;;;;;5028841;28;20022;-72
2022/09/25 04:35:40;;;;;;;16.70;7.70;;;20.70;66.80;;;;;;5025394;28;20084;-72
2022/09/25 04:38:06;;;;;;;19.48;7.90;;;20.70;66.70;;;;;;5028726;28;20437;-72
2022/09/25 04:40:32;;;;;;;14.07;7.57;;;20.70;67.10;;;;;;5031022;28;20022;-73
2022/09/25 04:43:00;;;;;;;13.45;7.68;;;20.70;67.10;;;;;;5031299;28;20031;-72
2022/09/25 04:45:27;;;;;;;14.43;8.63;;;20.70;67.00;;;;;;5029926;28;20365;-72
2022/09/25 04:47:54;;;;;;;15.00;7.97;;;20.80;67.10;;;;;;5033566;28;20033;-72
2022/09/25 04:50:21;;;;;;;12.55;7.40;;;20.70;67.40;;;;;;5034341;28;20022;-72
2022/09/25 04:52:50;;;;;;;18.15;8.10;;;20.80;67.40;;;;;;5008250;28;20030;-72
2022/09/25 04:55:20;;;;;;;13.73;7.95;;;20.70;67.40;;;;;;5032790;28;20481;-72
2022/09/25 04:57:54;;;;;;;14.63;7.55;;;20.80;67.10;;;;;;5032120;28;20104;-72
2022/09/25 05:00:20;;;;;;;12.25;8.10;;;20.80;67.10;;;;;;5033712;28;20022;-72
2022/09/25 05:02:47;;;;;;;16.95;8.07;;;20.80;66.80;;;;;;4998526;28;20025;-72
2022/09/25 05:05:14;;;;;;;13.40;7.65;;;20.80;67.00;;;;;;5033589;28;20029;-72
2022/09/25 05:07:39;;;;;;;16.77;7.78;;;20.80;66.90;;;;;;5033645;28;20025;-72
2022/09/25 05:10:09;;;;;;;14.60;7.20;;;20.80;67.00;;;;;;5031624;28;20381;-72
2022/09/25 05:12:35;;;;;;;11.68;7.18;;;20.80;66.80;;;;;;5032614;28;20032;-72
2022/09/25 05:15:01;;;;;;;11.38;7.25;;;20.80;67.00;;;;;;5032910;28;20091;-72
2022/09/25 05:17:27;;;;;;;12.27;7.55;;;20.80;67.00;;;;;;5033256;28;20030;-72
2022/09/25 05:19:53;;;;;;;15.90;7.70;;;20.80;67.00;;;;;;5033962;28;20025;-72
2022/09/25 05:22:18;;;;;;;12.65;7.07;;;20.80;67.00;;;;;;5032968;28;20115;-72
2022/09/25 05:24:44;;;;;;;13.77;7.95;;;20.70;67.20;;;;;;5034113;28;20014;-72
2022/09/25 05:27:11;;;;;;;15.30;7.63;;;20.80;67.40;;;;;;5032440;28;20026;-72
2022/09/25 05:29:37;;;;;;;13.50;7.47;;;20.80;67.30;;;;;;5033186;28;20028;-72
2022/09/25 05:32:03;;;;;;;13.35;7.30;;;20.70;67.10;;;;;;5032860;28;20388;-72
2022/09/25 05:34:29;;;;;;;15.05;8.20;;;20.80;67.30;;;;;;5033309;28;20468;-72
2022/09/25 05:36:55;;;;;;;17.23;7.68;;;20.80;67.20;;;;;;5032748;28;20033;-72
2022/09/25 05:39:20;;;;;;;12.77;7.72;;;20.70;67.30;;;;;;5014841;28;20104;-72
2022/09/25 05:41:46;;;;;;;14.85;7.28;;;20.80;67.10;;;;;;5030707;28;20539;-72
2022/09/25 05:44:13;;;;;;;13.50;7.75;;;20.80;67.70;;;;;;5032561;28;20072;-72
2022/09/25 05:46:39;;;;;;;13.00;7.63;;;20.80;67.50;;;;;;5032884;28;20029;-72
2022/09/25 05:49:05;;;;;;;12.60;7.05;;;20.80;67.80;;;;;;5032094;28;20033;-73
2022/09/25 05:51:32;;;;;;;11.90;7.13;;;20.80;67.60;;;;;;4998448;28;20040;-72
2022/09/25 05:54:01;;;;;;;12.35;7.35;;;20.80;67.30;;;;;;5015037;28;20034;-72
2022/09/25 05:56:26;;;;;;;13.10;6.83;;;20.80;67.70;;;;;;5025725;28;20034;-72
2022/09/25 05:58:53;;;;;;;12.35;7.38;;;20.80;67.60;;;;;;5030447;28;20021;-72
2022/09/25 06:01:18;;;;;;;12.88;6.97;;;20.80;68.00;;;;;;5031957;28;20029;-73
2022/09/25 06:03:44;;;;;;;14.80;7.50;;;20.80;67.20;;;;;;5027128;28;20060;-73
2022/09/25 06:06:10;;;;;;;16.77;7.60;;;20.80;67.30;;;;;;5033399;28;20025;-73
2022/09/25 06:08:36;;;;;;;14.18;7.03;;;20.80;67.20;;;;;;5030500;28;20516;-72
2022/09/25 06:11:03;;;;;;;15.23;7.07;;;20.70;67.30;;;;;;5032032;28;20041;-73
2022/09/25 06:13:33;;;;;;;12.85;7.22;;;20.80;67.40;;;;;;5030430;28;20413;-73
2022/09/25 06:16:00;;;;;;;12.82;7.05;;;20.80;67.10;;;;;;5031895;28;20176;-72
2022/09/25 06:18:26;;;;;;;13.40;7.18;;;20.80;67.50;;;;;;5030122;28;20025;-72
2022/09/25 06:21:00;;;;;;;15.30;7.30;;;20.80;66.90;;;;;;5030472;28;20513;-72
2022/09/25 06:23:26;;;;;;;11.02;6.88;;;20.80;67.70;;;;;;5025962;28;20393;-72
2022/09/25 06:25:52;;;;;;;15.15;6.75;;;20.80;67.40;;;;;;5030212;28;20028;-73
2022/09/25 06:28:17;;;;;;;17.35;7.15;;;20.80;67.40;;;;;;5031569;28;20036;-72
2022/09/25 06:30:44;;;;;;;12.48;7.03;;;20.80;67.30;;;;;;5026416;28;20030;-73
2022/09/25 06:33:12;;;;;;;14.57;6.97;;;20.80;67.30;;;;;;5013125;28;20021;-73
2022/09/25 06:35:46;;;;;;;22.77;7.60;;;20.80;67.80;;;;;;5031836;28;20032;-73
2022/09/25 06:38:13;;;;;;;28.55;7.47;;;20.80;67.70;;;;;;5027124;28;20021;-74
2022/09/25 06:40:39;;;;;;;14.30;7.13;;;20.80;67.80;;;;;;5031761;28;20021;-74
2022/09/25 06:43:08;;;;;;;12.80;7.18;;;20.80;67.70;;;;;;5027436;28;20493;-73
2022/09/25 06:45:34;;;;;;;13.07;7.28;;;20.80;67.30;;;;;;5031170;28;20021;-73
2022/09/25 06:48:02;;;;;;;12.70;7.45;;;20.80;67.40;;;;;;5013869;28;20037;-74
2022/09/25 06:50:42;;;;;;;14.40;6.47;;;20.80;67.40;;;;;;5022980;28;20026;-73
2022/09/25 06:53:10;;;;;;;13.18;6.60;;;20.80;67.50;;;;;;5031116;28;20056;-73
2022/09/25 06:55:36;;;;;;;15.00;7.35;;;20.80;67.50;;;;;;5030086;28;20370;-73
2022/09/25 06:58:04;;;;;;;16.77;7.57;;;20.80;67.60;;;;;;5028995;28;20036;-73
2022/09/25 07:00:30;;;;;;;14.82;7.20;;;20.80;68.60;;;;;;5029302;28;20406;-73
2022/09/25 07:05:43;;;;;;;11.93;6.80;;;20.80;67.80;;;;;;5024377;28;20049;-73
2022/09/25 07:08:16;;;;;;;20.27;7.07;;;20.80;68.50;;;;;;5030814;28;20029;-73
2022/09/25 07:10:49;;;;;;;12.27;6.43;;;20.80;68.30;;;;;;5030974;28;20079;-73
2022/09/25 07:13:23;;;;;;;11.48;6.60;;;20.80;68.30;;;;;;5030401;28;20428;-73
2022/09/25 07:16:03;;;;;;;15.43;7.57;;;20.80;67.80;;;;;;5030671;28;20481;-73
2022/09/25 07:18:29;;;;;;;13.43;6.40;;;20.80;68.20;;;;;;5029219;28;20025;-73
2022/09/25 07:21:02;;;;;;;15.35;6.85;;;20.80;67.80;;;;;;5031234;28;20132;-73
2022/09/25 07:23:30;;;;;;;14.63;7.05;;;20.80;67.90;;;;;;5016042;28;20408;-73
2022/09/25 07:26:16;;;;;;;11.95;7.13;;;20.80;68.00;;;;;;5013479;28;20057;-73
2022/09/25 07:28:42;;;;;;;12.90;6.80;;;20.80;68.00;;;;;;5025710;28;20049;-72
2022/09/25 07:31:21;;;;;;;11.88;6.40;;;20.80;67.90;;;;;;5029093;28;20715;-73
2022/09/25 07:33:47;;;;;;;14.45;6.70;;;20.80;68.20;;;;;;5030669;28;20053;-72
2022/09/25 07:36:15;;;;;;;12.30;6.53;;;20.80;68.40;;;;;;5013750;28;20056;-72
2022/09/25 07:38:41;;;;;;;19.00;6.65;;;20.80;69.10;;;;;;5031491;28;20056;-72
2022/09/25 07:41:10;;;;;;;15.02;6.53;;;20.90;68.30;;;;;;5028514;28;20495;-72
2022/09/25 07:43:42;;;;;;;11.25;6.38;;;20.80;69.00;;;;;;5030378;28;20082;-74
2022/09/25 07:46:07;;;;;;;11.55;6.45;;;20.90;69.00;;;;;;5013764;28;20473;-73
2022/09/25 07:48:33;;;;;;;13.45;6.85;;;20.90;68.40;;;;;;5030096;28;20029;-74
2022/09/25 07:51:01;;;;;;;13.50;6.43;;;20.90;68.60;;;;;;5030609;28;20083;-74
2022/09/25 07:53:27;;;;;;;12.07;6.75;;;20.80;68.70;;;;;;5030382;28;20434;-73
2022/09/25 07:55:57;;;;;;;12.73;6.57;;;20.90;69.10;;;;;;5021750;28;20485;-74
2022/09/25 07:58:22;;;;;;;;;;;20.80;69.30;;;;;;5030981;28;20022;-74
2022/09/25 08:00:48;;;;;;;10.07;6.00;;;20.80;68.80;;;;;;5027650;28;20391;-74
2022/09/25 08:03:14;;;;;;;18.25;7.13;;;20.80;69.50;;;;;;5029163;28;20025;-74
2022/09/25 08:05:39;;;;;;;16.38;6.88;;;20.90;69.00;;;;;;5027170;28;20021;-74
2022/09/25 08:08:05;;;;;;;13.40;6.53;;;20.90;69.20;;;;;;5028760;28;20029;-74
2022/09/25 08:10:31;;;;;;;15.90;6.70;;;20.80;69.40;;;;;;5027254;28;20033;-73
2022/09/25 08:12:57;;;;;;;14.35;6.72;;;20.80;69.20;;;;;;5029335;28;20080;-73
2022/09/25 08:15:24;;;;;;;15.48;6.47;;;20.80;69.00;;;;;;5012090;28;20072;-74
2022/09/25 08:17:50;;;;;;;15.60;6.90;;;20.80;69.10;;;;;;5032988;28;20032;-73
2022/09/25 08:20:16;;;;;;;11.73;6.38;;;20.90;69.10;;;;;;5015940;28;20473;-73
2022/09/25 08:22:42;;;;;;;11.80;6.93;;;20.90;69.50;;;;;;5034655;28;20105;-73
2022/09/25 08:25:08;;;;;;;13.68;6.45;;;20.80;69.40;;;;;;5032856;28;20028;-74
2022/09/25 08:27:42;;;;;;;13.57;6.75;;;20.90;69.20;;;;;;5034919;28;20030;-74
2022/09/25 08:30:09;;;;;;;15.70;6.57;;;20.80;69.20;;;;;;5035141;28;20029;-72
2022/09/25 08:32:35;;;;;;;15.68;6.65;;;20.90;69.00;;;;;;5033686;28;20028;-73
2022/09/25 08:35:05;;;;;;;15.68;7.53;;;20.80;69.00;;;;;;5034706;28;20072;-74
2022/09/25 08:37:31;;;;;;;13.77;6.30;;;20.80;69.30;;;;;;5020091;28;20037;-73
2022/09/25 08:39:58;;;;;;;24.58;7.68;;;20.90;69.10;;;;;;5034011;28;20060;-74
2022/09/25 08:42:33;;;;;;;23.05;7.25;;;20.90;69.40;;;;;;5028783;28;20060;-74
2022/09/25 08:50:40;;;;;;;19.33;6.97;;;20.90;69.10;;;;;;5027035;28;20032;-74
2022/09/25 08:53:22;;;;;;;20.85;7.65;;;20.90;68.10;;;;;;5032979;28;20367;-74
2022/09/25 08:58:42;;;;;;;17.58;7.28;;;20.90;68.00;;;;;;5032094;28;20535;-73
2022/09/25 09:01:24;;;;;;;21.23;7.82;;;20.90;67.70;;;;;;5031771;28;20029;-74
2022/09/25 09:04:32;;;;;;;15.38;9.60;;;20.80;67.50;;;;;;5032106;28;20017;-74
2022/09/25 09:07:16;;;;;;;14.20;8.43;;;20.70;66.10;;;;;;4925972;29;20027;-74
2022/09/25 09:09:48;;;;;;;13.63;8.20;;;20.70;65.20;;;;;;4993504;28;20160;-74
2022/09/25 09:12:18;;;;;;;13.50;7.70;;;20.70;63.80;;;;;;5032916;28;20021;-72
2022/09/25 09:14:51;;;;;;;14.30;8.50;;;20.60;62.20;;;;;;5033736;28;20044;-73
2022/09/25 09:17:23;;;;;;;18.48;8.25;;;20.70;62.30;;;;;;5042625;28;20397;-73
2022/09/25 09:20:26;;;;;;;19.00;8.68;;;20.70;62.50;;;;;;5028620;28;20037;-73
2022/09/25 09:22:53;;;;;;;20.65;13.68;;;20.80;64.00;;;;;;4991302;28;20041;-74
2022/09/25 09:25:54;;;;;;;25.10;11.82;;;20.90;65.30;;;;;;5033797;28;20469;-72
2022/09/25 09:28:47;;;;;;;27.90;14.43;;;21.00;65.40;;;;;;5019892;28;20091;-73
2022/09/25 09:31:50;;;;;;;27.92;12.30;;;21.00;65.80;;;;;;5032721;28;20029;-73
2022/09/25 09:34:41;;;;;;;23.27;12.15;;;21.10;66.30;;;;;;5016339;28;20029;-76
2022/09/25 09:37:22;;;;;;;30.23;12.05;;;21.10;66.60;;;;;;4999052;28;20087;-75
2022/09/25 09:40:17;;;;;;;24.30;11.98;;;21.10;66.50;;;;;;5030338;28;20473;-78
2022/09/25 09:42:50;;;;;;;28.27;12.45;;;21.10;66.20;;;;;;5027652;28;20033;-75
2022/09/25 09:45:40;;;;;;;28.27;13.55;;;21.20;66.70;;;;;;5032152;28;20030;-75
2022/09/25 09:48:24;;;;;;;26.40;14.38;;;21.20;68.10;;;;;;5031242;28;20073;-76
2022/09/25 09:51:12;;;;;;;27.80;13.98;;;21.20;66.90;;;;;;5030613;28;20417;-73
2022/09/25 09:53:45;;;;;;;23.88;12.55;;;21.20;67.20;;;;;;5021194;28;20631;-74
2022/09/25 09:56:19;;;;;;;24.20;12.73;;;21.10;65.60;;;;;;5033258;28;20436;-73
2022/09/25 09:58:50;;;;;;;29.35;12.77;;;21.10;66.50;;;;;;5031597;28;20033;-74
2022/09/25 10:01:20;;;;;;;36.22;13.50;;;21.10;66.70;;;;;;5031716;28;20108;-74
2022/09/25 10:03:52;;;;;;;35.45;13.40;;;21.10;66.70;;;;;;5031660;28;20029;-74
2022/09/25 10:06:21;;;;;;;28.05;12.85;;;21.20;66.30;;;;;;5032005;28;20405;-74
2022/09/25 10:08:47;;;;;;;29.13;12.52;;;21.10;66.20;;;;;;5025464;28;20521;-74
2022/09/25 10:11:17;;;;;;;27.35;12.95;;;21.10;66.20;;;;;;5032265;28;20052;-74
2022/09/25 10:13:44;;;;;;;25.00;12.25;;;21.10;66.30;;;;;;5031623;28;20033;-74
2022/09/25 10:16:18;;;;;;;22.98;11.70;;;21.10;66.30;;;;;;5032075;28;20030;-74
2022/09/25 10:18:53;;;;;;;35.72;12.30;;;21.10;66.30;;;;;;5032117;28;20033;-74
2022/09/25 10:21:22;;;;;;;25.42;12.10;;;21.10;66.40;;;;;;5032038;28;20053;-74
2022/09/25 10:23:52;;;;;;;21.48;11.68;;;21.10;66.50;;;;;;5031700;28;20030;-74
2022/09/25 10:26:37;;;;;;;20.33;11.52;;;21.10;66.60;;;;;;5032960;28;20425;-74
2022/09/25 10:29:26;;;;;;;23.52;11.15;;;21.10;66.60;;;;;;5033080;28;20404;-74
2022/09/25 10:32:02;;;;;;;24.58;11.15;;;21.10;66.60;;;;;;5032752;28;20035;-76
2022/09/25 10:34:30;;;;;;;21.10;11.20;;;21.10;66.60;;;;;;5032738;28;20037;-74
2022/09/25 10:36:56;;;;;;;20.17;11.02;;;21.10;66.50;;;;;;5032555;28;20030;-74
2022/09/25 10:39:31;;;;;;;21.10;11.10;;;21.10;67.00;;;;;;5030935;28;20044;-74
2022/09/25 10:41:59;;;;;;;20.98;11.23;;;21.10;66.10;;;;;;5047783;28;20116;-74
2022/09/25 10:44:32;;;;;;;21.55;11.23;;;21.10;66.00;;;;;;5031366;28;20124;-75
2022/09/25 10:50:25;;;;;;;23.77;11.48;;;21.10;66.00;;;;;;5038212;28;20470;-74
2022/09/25 10:52:58;;;;;;;20.17;10.45;;;21.10;66.00;;;;;;5032007;28;20091;-74
2022/09/25 10:55:29;;;;;;;22.33;10.75;;;21.00;66.00;;;;;;5032224;28;20473;-74
2022/09/25 10:58:10;;;;;;;24.85;10.50;;;21.10;66.10;;;;;;5032146;28;20112;-74
2022/09/25 11:00:53;;;;;;;18.27;10.45;;;21.00;66.10;;;;;;5032248;28;20385;-76
2022/09/25 11:03:30;;;;;;;20.33;10.57;;;21.10;66.20;;;;;;5032002;28;20022;-74
2022/09/25 11:06:04;;;;;;;20.30;10.95;;;21.00;66.30;;;;;;5032157;28;20052;-74
2022/09/25 11:08:33;;;;;;;20.73;10.52;;;21.10;66.60;;;;;;5031989;28;20048;-74
2022/09/25 11:11:01;;;;;;;18.88;10.93;;;21.10;66.60;;;;;;5032149;28;20037;-75
2022/09/25 11:13:35;;;;;;;19.30;10.50;;;21.10;66.70;;;;;;5047236;28;20480;-74
2022/09/25 11:16:08;;;;;;;18.70;11.38;;;21.10;66.60;;;;;;5031890;28;20034;-75
2022/09/25 11:18:50;;;;;;;21.15;10.77;;;21.10;66.60;;;;;;5031102;28;20052;-75
2022/09/25 11:21:45;;;;;;;20.30;10.55;;;21.10;66.20;;;;;;5047169;28;20032;-74
2022/09/25 11:24:20;;;;;;;20.35;9.35;;;21.10;66.20;;;;;;5047633;28;20038;-74
2022/09/25 11:27:02;;;;;;;18.73;11.38;;;21.00;66.10;;;;;;5031754;28;20033;-74
2022/09/25 11:29:56;;;;;;;19.60;10.55;;;21.00;66.10;;;;;;5031811;28;20048;-74
2022/09/25 11:33:02;;;;;;;17.70;10.05;;;21.00;66.10;;;;;;5032074;28;20029;-74
2022/09/25 11:35:44;;;;;;;17.33;10.48;;;21.00;66.20;;;;;;5028185;28;20032;-74
2022/09/25 11:42:19;;;;;;;18.23;9.45;;;21.00;66.70;;;;;;5026187;28;20017;-75
2022/09/25 11:44:56;;;;;;;27.30;8.30;;;21.00;67.30;;;;;;5031570;28;20035;-75
2022/09/25 11:47:46;;;;;;;14.40;7.95;;;20.90;62.80;;;;;;5030037;28;20036;-75
2022/09/25 11:50:17;;;;;;;13.45;7.57;;;20.80;60.90;;;;;;5030618;28;20529;-75
2022/09/25 11:52:58;;;;;;;14.00;7.57;;;20.80;62.10;;;;;;5030305;28;20460;-75
2022/09/25 11:55:45;;;;;;;12.18;7.85;;;20.70;61.50;;;;;;5030816;28;20037;-75
2022/09/25 11:58:48;;;;;;;12.00;7.32;;;20.70;60.80;;;;;;5030209;28;20109;-74
2022/09/25 12:01:47;;;;;;;13.98;7.70;;;20.70;62.10;;;;;;4987274;28;20123;-74
2022/09/25 12:04:41;;;;;;;12.48;7.18;;;20.80;63.60;;;;;;5031456;28;20057;-74
2022/09/25 12:07:39;;;;;;;12.02;7.60;;;20.80;62.10;;;;;;5031241;28;20033;-76
2022/09/25 12:10:15;;;;;;;187.80;36.97;;;20.90;62.00;;;;;;5030908;28;20107;-82
2022/09/25 12:13:01;;;;;;;495.13;161.70;;;21.00;62.80;;;;;;5031083;28;20064;-82
2022/09/25 12:16:17;;;;;;;1059.82;429.52;;;21.00;62.60;;;;;;5019667;28;20041;-82
2022/09/25 12:19:04;;;;;;;299.50;116.30;;;21.00;64.50;;;;;;4952021;28;20056;-81
2022/09/25 12:22:04;;;;;;;126.10;42.30;;;21.00;63.40;;;;;;5029828;28;20029;-82
2022/09/25 12:24:46;;;;;;;58.20;20.23;;;21.00;62.60;;;;;;5030004;28;20100;-81
2022/09/25 12:27:40;;;;;;;85.25;32.55;;;20.90;60.50;;;;;;5030177;28;20025;-81
2022/09/25 12:30:15;;;;;;;28.17;12.43;;;20.90;61.50;;;;;;5029919;28;20396;-82
2022/09/25 12:32:49;;;;;;;48.60;18.58;;;20.90;59.80;;;;;;5012859;28;20040;-82
2022/09/25 12:35:52;;;;;;;43.63;17.65;;;20.80;58.00;;;;;;5029653;28;20040;-76
2022/09/25 12:38:29;;;;;;;27.25;12.23;;;20.80;58.20;;;;;;5011855;28;20072;-76
2022/09/25 12:41:17;;;;;;;36.30;16.33;;;20.80;58.10;;;;;;5029158;28;20029;-76
2022/09/25 12:43:58;;;;;;;34.97;16.77;;;20.80;57.50;;;;;;5030495;28;20017;-77
2022/09/25 12:46:25;;;;;;;28.42;15.90;;;20.80;58.30;;;;;;5027557;28;20025;-76
2022/09/25 12:48:55;;;;;;;24.05;12.27;;;20.80;59.00;;;;;;5027580;28;20580;-76
2022/09/25 12:51:24;;;;;;;;;;;20.70;57.00;;;;;;5030396;28;20036;-76
2022/09/25 12:53:59;;;;;;;19.80;10.10;;;20.80;58.50;;;;;;5034385;28;19909;-76
2022/09/25 12:56:40;;;;;;;16.15;7.10;;;20.70;57.40;;;;;;5033907;28;20382;-77
2022/09/25 12:59:30;;;;;;;10.93;6.55;;;20.70;57.40;;;;;;5029293;28;20018;-77
2022/09/25 13:01:56;;;;;;;;;;;20.70;56.30;;;;;;5029776;28;20026;-76
2022/09/25 13:04:45;;;;;;;15.57;5.45;;;20.70;56.20;;;;;;5033376;28;19932;-76
2022/09/25 13:07:24;;;;;;;10.00;5.75;;;20.60;56.10;;;;;;5034112;28;20029;-76
2022/09/25 13:09:50;;;;;;;11.32;5.97;;;20.60;56.10;;;;;;5049748;28;20021;-76
2022/09/25 13:12:27;;;;;;;14.40;6.80;;;20.60;56.30;;;;;;5033176;28;20053;-76
2022/09/25 13:14:58;;;;;;;9.77;6.25;;;20.60;57.00;;;;;;5033479;28;20033;-76
2022/09/25 13:17:24;;;;;;;9.95;5.68;;;20.70;57.60;;;;;;5039690;28;20025;-75
2022/09/25 13:19:50;;;;;;;12.05;5.65;;;20.70;57.20;;;;;;5033727;28;20022;-76
2022/09/25 13:22:24;;;;;;;10.52;5.53;;;20.60;58.00;;;;;;5024021;28;20101;-75
2022/09/25 13:25:01;;;;;;;9.43;6.03;;;20.70;57.10;;;;;;5033619;28;20109;-76
2022/09/25 13:27:39;;;;;;;10.48;5.88;;;20.70;57.10;;;;;;5033059;28;20040;-76
2022/09/25 13:30:05;;;;;;;11.55;6.13;;;20.70;57.70;;;;;;5032591;28;20032;-76